sensor_id;sensor_type;location;lat;lon;timestamp;P1;durP1;ratioP1;P2;durP2;ratioP2
16270;SDS011;8243;49.048;8.396;2022-08-21T00:00:19;4.57;;;2.73;;
16270;SDS011;8243;49.048;8.396;2022-08-21T00:02:49;5.17;;;2.40;;
16270;SDS011;8243;49.048;8.396;2022-08-21T00:05:21;3.20;;;2.27;;
16270;SDS011;8243;49.048;8.396;2022-08-21T00:07:47;6.40;;;2.53;;
16270;SDS011;8243;49.048;8.396;2022-08-21T00:10:14;6.37;;;2.80;;
16270;SDS011;8243;49.048;8.396;2022-08-21T00:12:40;5.47;;;2.70;;
16270;SDS011;8243;49.048;8.396;2022-08-21T00:15:07;6.07;;;3.07;;
16270;SDS011;8243;49.048;8.396;2022-08-21T00:17:35;3.83;;;2.80;;
16270;SDS011;8243;49.048;8.396;2022-08-21T00:20:02;5.57;;;2.70;;
16270;SDS011;8243;49.048;8.396;2022-08-21T00:22:30;4.93;;;2.50;;
16270;SDS011;8243;49.048;8.396;2022-08-21T00:24:55;6.27;;;2.77;;
16270;SDS011;8243;49.048;8.396;2022-08-21T00:27:21;5.90;;;2.93;;
16270;SDS011;8243;49.048;8.396;2022-08-21T00:29:47;4.77;;;2.63;;
16270;SDS011;8243;49.048;8.396;2022-08-21T00:32:12;5.37;;;2.60;;
16270;SDS011;8243;49.048;8.396;2022-08-21T00:34:43;5.67;;;2.87;;
16270;SDS011;8243;49.048;8.396;2022-08-21T00:37:09;5.97;;;2.80;;
16270;SDS011;8243;49.048;8.396;2022-08-21T00:39:34;4.57;;;2.67;;
16270;SDS011;8243;49.048;8.396;2022-08-21T00:42:00;4.60;;;2.97;;
16270;SDS011;8243;49.048;8.396;2022-08-21T00:44:26;8.10;;;2.70;;
16270;SDS011;8243;49.048;8.396;2022-08-21T00:46:51;6.30;;;3.03;;
16270;SDS011;8243;49.048;8.396;2022-08-21T00:49:17;4.20;;;2.70;;
16270;SDS011;8243;49.048;8.396;2022-08-21T00:51:48;4.73;;;2.80;;
16270;SDS011;8243;49.048;8.396;2022-08-21T00:54:16;3.97;;;2.23;;
16270;SDS011;8243;49.048;8.396;2022-08-21T00:56:43;9.43;;;3.20;;
16270;SDS011;8243;49.048;8.396;2022-08-21T00:59:08;3.33;;;2.50;;
16270;SDS011;8243;49.048;8.396;2022-08-21T01:01:35;4.83;;;2.83;;
16270;SDS011;8243;49.048;8.396;2022-08-21T01:04:01;3.33;;;2.47;;
16270;SDS011;8243;49.048;8.396;2022-08-21T01:06:26;5.13;;;2.40;;
16270;SDS011;8243;49.048;8.396;2022-08-21T01:08:52;3.13;;;2.63;;
16270;SDS011;8243;49.048;8.396;2022-08-21T01:11:18;5.30;;;2.87;;
16270;SDS011;8243;49.048;8.396;2022-08-21T01:13:45;4.60;;;2.93;;
16270;SDS011;8243;49.048;8.396;2022-08-21T01:16:12;6.33;;;2.70;;
16270;SDS011;8243;49.048;8.396;2022-08-21T01:18:42;2.73;;;2.43;;
16270;SDS011;8243;49.048;8.396;2022-08-21T01:23:40;5.50;;;2.70;;
16270;SDS011;8243;49.048;8.396;2022-08-21T01:26:08;5.10;;;2.43;;
16270;SDS011;8243;49.048;8.396;2022-08-21T01:28:37;6.60;;;2.97;;
16270;SDS011;8243;49.048;8.396;2022-08-21T01:31:08;4.80;;;2.87;;
16270;SDS011;8243;49.048;8.396;2022-08-21T01:33:37;6.37;;;3.10;;
16270;SDS011;8243;49.048;8.396;2022-08-21T01:36:03;6.87;;;3.20;;
16270;SDS011;8243;49.048;8.396;2022-08-21T01:38:29;3.87;;;2.60;;
16270;SDS011;8243;49.048;8.396;2022-08-21T01:40:55;5.90;;;3.13;;
16270;SDS011;8243;49.048;8.396;2022-08-21T01:43:21;5.70;;;2.87;;
16270;SDS011;8243;49.048;8.396;2022-08-21T01:45:46;7.03;;;2.90;;
16270;SDS011;8243;49.048;8.396;2022-08-21T01:48:12;4.70;;;3.10;;
16270;SDS011;8243;49.048;8.396;2022-08-21T01:50:37;6.00;;;2.90;;
16270;SDS011;8243;49.048;8.396;2022-08-21T01:53:03;6.80;;;3.13;;
16270;SDS011;8243;49.048;8.396;2022-08-21T01:55:29;5.13;;;3.00;;
16270;SDS011;8243;49.048;8.396;2022-08-21T01:57:55;6.53;;;3.00;;
16270;SDS011;8243;49.048;8.396;2022-08-21T02:00:22;7.00;;;3.57;;
16270;SDS011;8243;49.048;8.396;2022-08-21T02:02:48;6.87;;;3.10;;
16270;SDS011;8243;49.048;8.396;2022-08-21T02:05:14;7.37;;;3.00;;
16270;SDS011;8243;49.048;8.396;2022-08-21T02:07:42;5.80;;;2.97;;
16270;SDS011;8243;49.048;8.396;2022-08-21T02:10:11;6.50;;;3.07;;
16270;SDS011;8243;49.048;8.396;2022-08-21T02:12:38;6.93;;;3.03;;
16270;SDS011;8243;49.048;8.396;2022-08-21T02:15:04;8.20;;;3.17;;
16270;SDS011;8243;49.048;8.396;2022-08-21T02:17:37;7.30;;;2.73;;
16270;SDS011;8243;49.048;8.396;2022-08-21T02:20:11;5.73;;;2.70;;
16270;SDS011;8243;49.048;8.396;2022-08-21T02:22:42;3.43;;;2.70;;
16270;SDS011;8243;49.048;8.396;2022-08-21T02:25:07;7.47;;;3.10;;
16270;SDS011;8243;49.048;8.396;2022-08-21T02:27:41;6.87;;;3.20;;
16270;SDS011;8243;49.048;8.396;2022-08-21T02:30:10;6.00;;;3.47;;
16270;SDS011;8243;49.048;8.396;2022-08-21T02:32:38;7.40;;;3.17;;
16270;SDS011;8243;49.048;8.396;2022-08-21T02:35:04;6.27;;;3.53;;
16270;SDS011;8243;49.048;8.396;2022-08-21T02:37:31;5.63;;;3.30;;
16270;SDS011;8243;49.048;8.396;2022-08-21T02:39:56;7.30;;;3.67;;
16270;SDS011;8243;49.048;8.396;2022-08-21T02:42:24;4.30;;;3.40;;
16270;SDS011;8243;49.048;8.396;2022-08-21T02:44:50;4.43;;;2.83;;
16270;SDS011;8243;49.048;8.396;2022-08-21T02:47:15;5.53;;;2.77;;
16270;SDS011;8243;49.048;8.396;2022-08-21T02:49:41;5.87;;;3.30;;
16270;SDS011;8243;49.048;8.396;2022-08-21T02:52:06;5.00;;;3.10;;
16270;SDS011;8243;49.048;8.396;2022-08-21T02:54:32;6.03;;;3.50;;
16270;SDS011;8243;49.048;8.396;2022-08-21T02:56:58;6.80;;;3.57;;
16270;SDS011;8243;49.048;8.396;2022-08-21T02:59:23;4.50;;;3.00;;
16270;SDS011;8243;49.048;8.396;2022-08-21T03:01:49;6.10;;;3.40;;
16270;SDS011;8243;49.048;8.396;2022-08-21T03:04:14;6.37;;;3.37;;
16270;SDS011;8243;49.048;8.396;2022-08-21T03:06:40;4.27;;;3.50;;
16270;SDS011;8243;49.048;8.396;2022-08-21T03:09:05;7.53;;;3.50;;
16270;SDS011;8243;49.048;8.396;2022-08-21T03:11:31;4.73;;;3.23;;
16270;SDS011;8243;49.048;8.396;2022-08-21T03:13:56;5.93;;;3.50;;
16270;SDS011;8243;49.048;8.396;2022-08-21T03:16:22;7.67;;;3.57;;
16270;SDS011;8243;49.048;8.396;2022-08-21T03:18:48;5.70;;;3.50;;
16270;SDS011;8243;49.048;8.396;2022-08-21T03:21:13;5.83;;;3.17;;
16270;SDS011;8243;49.048;8.396;2022-08-21T03:23:39;5.33;;;3.53;;
16270;SDS011;8243;49.048;8.396;2022-08-21T03:26:07;6.40;;;3.10;;
16270;SDS011;8243;49.048;8.396;2022-08-21T03:28:32;7.07;;;3.23;;
16270;SDS011;8243;49.048;8.396;2022-08-21T03:30:58;5.33;;;3.03;;
16270;SDS011;8243;49.048;8.396;2022-08-21T03:33:24;6.00;;;3.50;;
16270;SDS011;8243;49.048;8.396;2022-08-21T03:35:56;6.67;;;3.17;;
16270;SDS011;8243;49.048;8.396;2022-08-21T03:38:27;4.00;;;3.07;;
16270;SDS011;8243;49.048;8.396;2022-08-21T03:40:54;4.13;;;3.13;;
16270;SDS011;8243;49.048;8.396;2022-08-21T03:43:19;7.20;;;3.77;;
16270;SDS011;8243;49.048;8.396;2022-08-21T03:45:45;5.90;;;3.40;;
16270;SDS011;8243;49.048;8.396;2022-08-21T03:48:11;4.83;;;3.47;;
16270;SDS011;8243;49.048;8.396;2022-08-21T03:50:39;5.07;;;3.03;;
16270;SDS011;8243;49.048;8.396;2022-08-21T03:53:06;5.80;;;3.50;;
16270;SDS011;8243;49.048;8.396;2022-08-21T03:55:36;8.00;;;3.60;;
16270;SDS011;8243;49.048;8.396;2022-08-21T03:58:02;9.97;;;3.53;;
16270;SDS011;8243;49.048;8.396;2022-08-21T04:00:27;6.27;;;3.67;;
16270;SDS011;8243;49.048;8.396;2022-08-21T04:02:53;5.23;;;3.80;;
16270;SDS011;8243;49.048;8.396;2022-08-21T04:05:19;6.57;;;3.90;;
16270;SDS011;8243;49.048;8.396;2022-08-21T04:07:58;7.27;;;3.30;;
16270;SDS011;8243;49.048;8.396;2022-08-21T04:10:29;7.93;;;3.70;;
16270;SDS011;8243;49.048;8.396;2022-08-21T04:12:55;7.77;;;3.60;;
16270;SDS011;8243;49.048;8.396;2022-08-21T04:15:22;10.30;;;3.97;;
16270;SDS011;8243;49.048;8.396;2022-08-21T04:17:48;5.40;;;3.43;;
16270;SDS011;8243;49.048;8.396;2022-08-21T04:20:15;6.33;;;3.50;;
16270;SDS011;8243;49.048;8.396;2022-08-21T04:22:41;6.13;;;3.73;;
16270;SDS011;8243;49.048;8.396;2022-08-21T04:25:07;4.43;;;3.67;;
16270;SDS011;8243;49.048;8.396;2022-08-21T04:27:33;4.87;;;3.53;;
16270;SDS011;8243;49.048;8.396;2022-08-21T04:29:59;5.03;;;3.53;;
16270;SDS011;8243;49.048;8.396;2022-08-21T04:32:25;7.10;;;3.93;;
16270;SDS011;8243;49.048;8.396;2022-08-21T04:34:57;6.13;;;3.70;;
16270;SDS011;8243;49.048;8.396;2022-08-21T04:37:28;6.37;;;4.00;;
16270;SDS011;8243;49.048;8.396;2022-08-21T04:39:54;10.17;;;3.63;;
16270;SDS011;8243;49.048;8.396;2022-08-21T04:42:22;5.90;;;3.77;;
16270;SDS011;8243;49.048;8.396;2022-08-21T04:44:52;6.57;;;3.50;;
16270;SDS011;8243;49.048;8.396;2022-08-21T04:47:19;5.10;;;3.27;;
16270;SDS011;8243;49.048;8.396;2022-08-21T04:49:45;6.13;;;3.60;;
16270;SDS011;8243;49.048;8.396;2022-08-21T04:52:12;8.60;;;4.17;;
16270;SDS011;8243;49.048;8.396;2022-08-21T04:54:39;7.60;;;3.67;;
16270;SDS011;8243;49.048;8.396;2022-08-21T04:57:08;6.10;;;3.33;;
16270;SDS011;8243;49.048;8.396;2022-08-21T04:59:35;3.73;;;2.90;;
16270;SDS011;8243;49.048;8.396;2022-08-21T05:02:06;3.97;;;2.80;;
16270;SDS011;8243;49.048;8.396;2022-08-21T05:04:34;6.07;;;3.07;;
16270;SDS011;8243;49.048;8.396;2022-08-21T05:07:04;7.23;;;2.80;;
16270;SDS011;8243;49.048;8.396;2022-08-21T05:09:32;3.73;;;3.00;;
16270;SDS011;8243;49.048;8.396;2022-08-21T05:12:00;6.03;;;2.70;;
16270;SDS011;8243;49.048;8.396;2022-08-21T05:14:27;5.37;;;2.87;;
16270;SDS011;8243;49.048;8.396;2022-08-21T05:16:52;3.80;;;3.10;;
16270;SDS011;8243;49.048;8.396;2022-08-21T05:19:18;4.23;;;2.63;;
16270;SDS011;8243;49.048;8.396;2022-08-21T05:21:44;3.63;;;2.53;;
16270;SDS011;8243;49.048;8.396;2022-08-21T05:24:10;5.57;;;3.00;;
16270;SDS011;8243;49.048;8.396;2022-08-21T05:26:37;3.57;;;2.60;;
16270;SDS011;8243;49.048;8.396;2022-08-21T05:29:03;5.20;;;2.77;;
16270;SDS011;8243;49.048;8.396;2022-08-21T05:31:29;6.20;;;3.00;;
16270;SDS011;8243;49.048;8.396;2022-08-21T05:33:55;3.43;;;2.83;;
16270;SDS011;8243;49.048;8.396;2022-08-21T05:36:22;3.83;;;2.60;;
16270;SDS011;8243;49.048;8.396;2022-08-21T05:38:47;3.50;;;2.37;;
16270;SDS011;8243;49.048;8.396;2022-08-21T05:41:13;3.67;;;2.80;;
16270;SDS011;8243;49.048;8.396;2022-08-21T05:43:38;4.73;;;2.50;;
16270;SDS011;8243;49.048;8.396;2022-08-21T05:46:04;3.30;;;2.50;;
16270;SDS011;8243;49.048;8.396;2022-08-21T05:48:31;4.70;;;2.17;;
16270;SDS011;8243;49.048;8.396;2022-08-21T05:50:57;4.90;;;2.70;;
16270;SDS011;8243;49.048;8.396;2022-08-21T05:53:28;3.90;;;2.60;;
16270;SDS011;8243;49.048;8.396;2022-08-21T05:55:54;3.20;;;2.27;;
16270;SDS011;8243;49.048;8.396;2022-08-21T05:58:20;3.27;;;2.07;;
16270;SDS011;8243;49.048;8.396;2022-08-21T06:00:48;5.17;;;2.67;;
16270;SDS011;8243;49.048;8.396;2022-08-21T06:03:15;4.43;;;2.40;;
16270;SDS011;8243;49.048;8.396;2022-08-21T06:05:46;4.77;;;2.80;;
16270;SDS011;8243;49.048;8.396;2022-08-21T06:08:11;5.33;;;2.53;;
16270;SDS011;8243;49.048;8.396;2022-08-21T06:10:37;4.73;;;2.67;;
16270;SDS011;8243;49.048;8.396;2022-08-21T06:13:03;4.87;;;2.47;;
16270;SDS011;8243;49.048;8.396;2022-08-21T06:15:29;3.53;;;2.43;;
16270;SDS011;8243;49.048;8.396;2022-08-21T06:17:55;4.50;;;2.50;;
16270;SDS011;8243;49.048;8.396;2022-08-21T06:20:20;4.23;;;2.43;;
16270;SDS011;8243;49.048;8.396;2022-08-21T06:22:46;5.00;;;2.87;;
16270;SDS011;8243;49.048;8.396;2022-08-21T06:25:11;6.50;;;2.70;;
16270;SDS011;8243;49.048;8.396;2022-08-21T06:27:37;8.33;;;2.80;;
16270;SDS011;8243;49.048;8.396;2022-08-21T06:30:03;4.33;;;3.00;;
16270;SDS011;8243;49.048;8.396;2022-08-21T06:32:30;3.87;;;2.43;;
16270;SDS011;8243;49.048;8.396;2022-08-21T06:34:56;5.30;;;2.50;;
16270;SDS011;8243;49.048;8.396;2022-08-21T06:37:21;4.43;;;2.33;;
16270;SDS011;8243;49.048;8.396;2022-08-21T06:39:47;3.90;;;2.53;;
16270;SDS011;8243;49.048;8.396;2022-08-21T06:42:17;3.23;;;2.70;;
16270;SDS011;8243;49.048;8.396;2022-08-21T06:44:43;4.20;;;2.23;;
16270;SDS011;8243;49.048;8.396;2022-08-21T06:47:09;6.43;;;2.40;;
16270;SDS011;8243;49.048;8.396;2022-08-21T06:49:35;4.13;;;2.63;;
16270;SDS011;8243;49.048;8.396;2022-08-21T06:52:01;3.90;;;2.30;;
16270;SDS011;8243;49.048;8.396;2022-08-21T06:54:26;7.23;;;3.03;;
16270;SDS011;8243;49.048;8.396;2022-08-21T06:56:52;4.10;;;2.40;;
16270;SDS011;8243;49.048;8.396;2022-08-21T06:59:18;4.93;;;2.73;;
16270;SDS011;8243;49.048;8.396;2022-08-21T07:01:43;5.03;;;2.70;;
16270;SDS011;8243;49.048;8.396;2022-08-21T07:04:09;3.30;;;2.30;;
16270;SDS011;8243;49.048;8.396;2022-08-21T07:06:36;6.20;;;2.53;;
16270;SDS011;8243;49.048;8.396;2022-08-21T07:09:02;4.80;;;2.50;;
16270;SDS011;8243;49.048;8.396;2022-08-21T07:11:28;4.30;;;2.20;;
16270;SDS011;8243;49.048;8.396;2022-08-21T07:13:53;5.17;;;2.30;;
16270;SDS011;8243;49.048;8.396;2022-08-21T07:16:21;6.57;;;2.63;;
16270;SDS011;8243;49.048;8.396;2022-08-21T07:18:47;3.00;;;2.00;;
16270;SDS011;8243;49.048;8.396;2022-08-21T07:21:14;5.97;;;2.60;;
16270;SDS011;8243;49.048;8.396;2022-08-21T07:23:44;5.90;;;2.40;;
16270;SDS011;8243;49.048;8.396;2022-08-21T07:26:13;5.80;;;2.57;;
16270;SDS011;8243;49.048;8.396;2022-08-21T07:28:40;8.23;;;2.70;;
16270;SDS011;8243;49.048;8.396;2022-08-21T07:31:06;4.87;;;2.63;;
16270;SDS011;8243;49.048;8.396;2022-08-21T07:33:34;5.87;;;2.40;;
16270;SDS011;8243;49.048;8.396;2022-08-21T07:36:00;3.77;;;2.23;;
16270;SDS011;8243;49.048;8.396;2022-08-21T07:38:26;4.33;;;2.60;;
16270;SDS011;8243;49.048;8.396;2022-08-21T07:40:52;6.47;;;2.73;;
16270;SDS011;8243;49.048;8.396;2022-08-21T07:43:21;6.20;;;2.47;;
16270;SDS011;8243;49.048;8.396;2022-08-21T07:45:47;3.77;;;2.50;;
16270;SDS011;8243;49.048;8.396;2022-08-21T07:48:14;5.07;;;2.80;;
16270;SDS011;8243;49.048;8.396;2022-08-21T07:50:40;6.13;;;3.10;;
16270;SDS011;8243;49.048;8.396;2022-08-21T07:53:06;4.97;;;2.67;;
16270;SDS011;8243;49.048;8.396;2022-08-21T07:55:32;4.73;;;2.40;;
16270;SDS011;8243;49.048;8.396;2022-08-21T07:57:58;3.43;;;2.20;;
16270;SDS011;8243;49.048;8.396;2022-08-21T08:00:24;6.60;;;2.73;;
16270;SDS011;8243;49.048;8.396;2022-08-21T08:02:51;5.93;;;2.60;;
16270;SDS011;8243;49.048;8.396;2022-08-21T08:05:19;5.03;;;2.43;;
16270;SDS011;8243;49.048;8.396;2022-08-21T08:07:48;4.13;;;2.37;;
16270;SDS011;8243;49.048;8.396;2022-08-21T08:10:13;4.97;;;2.63;;
16270;SDS011;8243;49.048;8.396;2022-08-21T08:12:40;4.40;;;2.50;;
16270;SDS011;8243;49.048;8.396;2022-08-21T08:15:08;4.30;;;2.53;;
16270;SDS011;8243;49.048;8.396;2022-08-21T08:17:36;4.20;;;2.50;;
16270;SDS011;8243;49.048;8.396;2022-08-21T08:20:03;6.13;;;2.30;;
16270;SDS011;8243;49.048;8.396;2022-08-21T08:22:30;6.13;;;2.77;;
16270;SDS011;8243;49.048;8.396;2022-08-21T08:24:56;5.80;;;2.87;;
16270;SDS011;8243;49.048;8.396;2022-08-21T08:27:22;6.43;;;2.90;;
16270;SDS011;8243;49.048;8.396;2022-08-21T08:29:48;4.70;;;2.40;;
16270;SDS011;8243;49.048;8.396;2022-08-21T08:32:14;4.57;;;2.80;;
16270;SDS011;8243;49.048;8.396;2022-08-21T08:34:40;6.63;;;2.93;;
16270;SDS011;8243;49.048;8.396;2022-08-21T08:37:06;5.77;;;2.70;;
16270;SDS011;8243;49.048;8.396;2022-08-21T08:39:33;7.37;;;2.80;;
16270;SDS011;8243;49.048;8.396;2022-08-21T08:42:01;4.47;;;2.60;;
16270;SDS011;8243;49.048;8.396;2022-08-21T08:44:31;5.27;;;2.60;;
16270;SDS011;8243;49.048;8.396;2022-08-21T08:46:58;6.30;;;3.17;;
16270;SDS011;8243;49.048;8.396;2022-08-21T08:52:22;5.50;;;2.80;;
16270;SDS011;8243;49.048;8.396;2022-08-21T08:55:05;6.03;;;2.90;;
16270;SDS011;8243;49.048;8.396;2022-08-21T08:57:35;4.30;;;2.50;;
16270;SDS011;8243;49.048;8.396;2022-08-21T09:00:07;4.80;;;3.00;;
16270;SDS011;8243;49.048;8.396;2022-08-21T09:02:39;6.13;;;3.07;;
16270;SDS011;8243;49.048;8.396;2022-08-21T09:05:06;8.97;;;3.20;;
16270;SDS011;8243;49.048;8.396;2022-08-21T09:07:40;6.43;;;2.90;;
16270;SDS011;8243;49.048;8.396;2022-08-21T09:10:35;5.67;;;3.07;;
16270;SDS011;8243;49.048;8.396;2022-08-21T09:23:44;6.00;;;2.80;;
16270;SDS011;8243;49.048;8.396;2022-08-21T09:26:18;6.87;;;3.10;;
16270;SDS011;8243;49.048;8.396;2022-08-21T09:28:45;7.00;;;3.00;;
16270;SDS011;8243;49.048;8.396;2022-08-21T09:31:21;7.13;;;3.17;;
16270;SDS011;8243;49.048;8.396;2022-08-21T09:33:48;8.10;;;3.20;;
16270;SDS011;8243;49.048;8.396;2022-08-21T09:36:22;5.00;;;3.30;;
16270;SDS011;8243;49.048;8.396;2022-08-21T09:38:53;5.90;;;2.97;;
16270;SDS011;8243;49.048;8.396;2022-08-21T09:41:27;7.37;;;2.90;;
16270;SDS011;8243;49.048;8.396;2022-08-21T09:43:56;6.80;;;3.17;;
16270;SDS011;8243;49.048;8.396;2022-08-21T09:46:23;5.43;;;3.17;;
16270;SDS011;8243;49.048;8.396;2022-08-21T09:48:51;6.67;;;3.57;;
16270;SDS011;8243;49.048;8.396;2022-08-21T09:51:26;4.07;;;2.90;;
16270;SDS011;8243;49.048;8.396;2022-08-21T09:54:00;4.83;;;3.10;;
16270;SDS011;8243;49.048;8.396;2022-08-21T09:57:01;6.70;;;3.03;;
16270;SDS011;8243;49.048;8.396;2022-08-21T09:59:48;6.07;;;2.83;;
16270;SDS011;8243;49.048;8.396;2022-08-21T10:02:31;6.83;;;3.13;;
16270;SDS011;8243;49.048;8.396;2022-08-21T10:04:59;6.53;;;3.23;;
16270;SDS011;8243;49.048;8.396;2022-08-21T10:07:35;5.33;;;3.00;;
16270;SDS011;8243;49.048;8.396;2022-08-21T10:10:22;6.67;;;2.83;;
16270;SDS011;8243;49.048;8.396;2022-08-21T10:23:50;4.87;;;2.53;;
16270;SDS011;8243;49.048;8.396;2022-08-21T10:37:11;9.50;;;3.30;;
16270;SDS011;8243;49.048;8.396;2022-08-21T10:39:59;5.80;;;3.00;;
16270;SDS011;8243;49.048;8.396;2022-08-21T10:42:35;4.60;;;2.57;;
16270;SDS011;8243;49.048;8.396;2022-08-21T10:46:16;7.10;;;3.20;;
16270;SDS011;8243;49.048;8.396;2022-08-21T10:48:25;5.73;;;2.60;;
16270;SDS011;8243;49.048;8.396;2022-08-21T10:53:50;3.77;;;2.80;;
16270;SDS011;8243;49.048;8.396;2022-08-21T10:56:33;6.60;;;3.00;;
16270;SDS011;8243;49.048;8.396;2022-08-21T10:59:19;4.33;;;2.70;;
16270;SDS011;8243;49.048;8.396;2022-08-21T11:02:03;4.13;;;2.60;;
16270;SDS011;8243;49.048;8.396;2022-08-21T11:10:04;4.03;;;2.70;;
16270;SDS011;8243;49.048;8.396;2022-08-21T11:12:41;6.20;;;2.90;;
16270;SDS011;8243;49.048;8.396;2022-08-21T11:15:17;5.43;;;2.90;;
16270;SDS011;8243;49.048;8.396;2022-08-21T11:18:37;4.33;;;2.67;;
16270;SDS011;8243;49.048;8.396;2022-08-21T11:20:42;5.83;;;2.83;;
16270;SDS011;8243;49.048;8.396;2022-08-21T11:23:22;5.93;;;2.90;;
16270;SDS011;8243;49.048;8.396;2022-08-21T11:25:53;6.80;;;2.67;;
16270;SDS011;8243;49.048;8.396;2022-08-21T11:28:27;7.07;;;3.00;;
16270;SDS011;8243;49.048;8.396;2022-08-21T11:31:08;6.20;;;2.73;;
16270;SDS011;8243;49.048;8.396;2022-08-21T11:33:57;6.87;;;2.67;;
16270;SDS011;8243;49.048;8.396;2022-08-21T11:42:24;4.43;;;2.83;;
16270;SDS011;8243;49.048;8.396;2022-08-21T11:47:44;5.37;;;2.80;;
16270;SDS011;8243;49.048;8.396;2022-08-21T11:50:16;3.13;;;2.50;;
16270;SDS011;8243;49.048;8.396;2022-08-21T11:52:46;7.77;;;2.30;;
16270;SDS011;8243;49.048;8.396;2022-08-21T11:55:18;4.43;;;2.37;;
16270;SDS011;8243;49.048;8.396;2022-08-21T11:57:52;3.20;;;2.20;;
16270;SDS011;8243;49.048;8.396;2022-08-21T12:00:42;4.03;;;2.30;;
16270;SDS011;8243;49.048;8.396;2022-08-21T12:03:13;4.87;;;2.40;;
16270;SDS011;8243;49.048;8.396;2022-08-21T12:05:51;3.90;;;2.30;;
16270;SDS011;8243;49.048;8.396;2022-08-21T12:16:38;4.13;;;2.30;;
16270;SDS011;8243;49.048;8.396;2022-08-21T12:21:33;4.67;;;2.47;;
16270;SDS011;8243;49.048;8.396;2022-08-21T12:26:48;4.97;;;2.60;;
16270;SDS011;8243;49.048;8.396;2022-08-21T12:29:28;4.13;;;2.40;;
16270;SDS011;8243;49.048;8.396;2022-08-21T12:34:30;3.83;;;2.33;;
16270;SDS011;8243;49.048;8.396;2022-08-21T12:37:01;7.70;;;2.70;;
16270;SDS011;8243;49.048;8.396;2022-08-21T12:39:36;4.40;;;2.40;;
16270;SDS011;8243;49.048;8.396;2022-08-21T12:42:14;5.30;;;2.50;;
16270;SDS011;8243;49.048;8.396;2022-08-21T12:44:51;4.57;;;2.40;;
16270;SDS011;8243;49.048;8.396;2022-08-21T12:49:56;4.13;;;2.40;;
16270;SDS011;8243;49.048;8.396;2022-08-21T12:52:34;4.87;;;2.40;;
16270;SDS011;8243;49.048;8.396;2022-08-21T12:55:05;4.93;;;2.63;;
16270;SDS011;8243;49.048;8.396;2022-08-21T12:57:35;3.80;;;2.50;;
16270;SDS011;8243;49.048;8.396;2022-08-21T13:00:03;4.27;;;2.83;;
16270;SDS011;8243;49.048;8.396;2022-08-21T13:02:37;4.93;;;3.07;;
16270;SDS011;8243;49.048;8.396;2022-08-21T13:05:13;3.63;;;2.33;;
16270;SDS011;8243;49.048;8.396;2022-08-21T13:07:46;3.63;;;2.30;;
16270;SDS011;8243;49.048;8.396;2022-08-21T13:10:34;5.47;;;2.77;;
16270;SDS011;8243;49.048;8.396;2022-08-21T13:13:02;6.47;;;3.00;;
16270;SDS011;8243;49.048;8.396;2022-08-21T13:15:32;3.33;;;2.70;;
16270;SDS011;8243;49.048;8.396;2022-08-21T13:17:59;4.13;;;2.50;;
16270;SDS011;8243;49.048;8.396;2022-08-21T13:20:34;2.70;;;2.50;;
16270;SDS011;8243;49.048;8.396;2022-08-21T13:23:03;4.97;;;2.70;;
16270;SDS011;8243;49.048;8.396;2022-08-21T13:25:40;5.73;;;3.00;;
16270;SDS011;8243;49.048;8.396;2022-08-21T13:28:10;4.20;;;2.50;;
16270;SDS011;8243;49.048;8.396;2022-08-21T13:30:54;6.33;;;3.00;;
16270;SDS011;8243;49.048;8.396;2022-08-21T13:33:21;5.80;;;2.80;;
16270;SDS011;8243;49.048;8.396;2022-08-21T13:38:26;4.70;;;2.40;;
16270;SDS011;8243;49.048;8.396;2022-08-21T13:40:56;4.90;;;3.20;;
16270;SDS011;8243;49.048;8.396;2022-08-21T13:43:26;4.57;;;2.93;;
16270;SDS011;8243;49.048;8.396;2022-08-21T13:45:56;7.80;;;2.87;;
16270;SDS011;8243;49.048;8.396;2022-08-21T13:48:23;5.67;;;2.83;;
16270;SDS011;8243;49.048;8.396;2022-08-21T13:50:51;4.33;;;2.70;;
16270;SDS011;8243;49.048;8.396;2022-08-21T13:53:30;5.17;;;2.50;;
16270;SDS011;8243;49.048;8.396;2022-08-21T13:55:59;4.23;;;2.43;;
16270;SDS011;8243;49.048;8.396;2022-08-21T13:58:33;5.83;;;2.37;;
16270;SDS011;8243;49.048;8.396;2022-08-21T14:01:21;7.20;;;2.30;;
16270;SDS011;8243;49.048;8.396;2022-08-21T14:03:54;4.70;;;2.50;;
16270;SDS011;8243;49.048;8.396;2022-08-21T14:06:27;2.70;;;2.40;;
16270;SDS011;8243;49.048;8.396;2022-08-21T14:08:58;2.70;;;2.40;;
16270;SDS011;8243;49.048;8.396;2022-08-21T14:11:26;3.90;;;2.53;;
16270;SDS011;8243;49.048;8.396;2022-08-21T14:13:58;4.50;;;2.80;;
16270;SDS011;8243;49.048;8.396;2022-08-21T14:19:23;3.90;;;2.43;;
16270;SDS011;8243;49.048;8.396;2022-08-21T14:21:50;3.33;;;2.40;;
16270;SDS011;8243;49.048;8.396;2022-08-21T14:26:52;4.87;;;2.80;;
16270;SDS011;8243;49.048;8.396;2022-08-21T14:29:26;3.07;;;2.53;;
16270;SDS011;8243;49.048;8.396;2022-08-21T14:31:57;4.43;;;2.90;;
16270;SDS011;8243;49.048;8.396;2022-08-21T14:34:25;6.27;;;2.97;;
16270;SDS011;8243;49.048;8.396;2022-08-21T14:36:53;4.83;;;2.40;;
16270;SDS011;8243;49.048;8.396;2022-08-21T14:39:19;4.57;;;2.63;;
16270;SDS011;8243;49.048;8.396;2022-08-21T14:41:45;3.50;;;2.80;;
16270;SDS011;8243;49.048;8.396;2022-08-21T14:44:13;4.73;;;2.70;;
16270;SDS011;8243;49.048;8.396;2022-08-21T14:46:39;4.77;;;2.30;;
16270;SDS011;8243;49.048;8.396;2022-08-21T14:49:05;4.80;;;2.70;;
16270;SDS011;8243;49.048;8.396;2022-08-21T14:51:30;6.77;;;2.70;;
16270;SDS011;8243;49.048;8.396;2022-08-21T14:53:56;5.63;;;3.30;;
16270;SDS011;8243;49.048;8.396;2022-08-21T14:56:22;4.87;;;2.30;;
16270;SDS011;8243;49.048;8.396;2022-08-21T14:58:49;5.50;;;2.70;;
16270;SDS011;8243;49.048;8.396;2022-08-21T15:01:17;4.77;;;2.57;;
16270;SDS011;8243;49.048;8.396;2022-08-21T15:03:45;4.87;;;2.60;;
16270;SDS011;8243;49.048;8.396;2022-08-21T15:06:11;4.57;;;2.60;;
16270;SDS011;8243;49.048;8.396;2022-08-21T15:08:37;4.13;;;2.50;;
16270;SDS011;8243;49.048;8.396;2022-08-21T15:11:03;4.03;;;2.10;;
16270;SDS011;8243;49.048;8.396;2022-08-21T15:13:31;4.60;;;2.37;;
16270;SDS011;8243;49.048;8.396;2022-08-21T15:15:57;3.40;;;2.30;;
16270;SDS011;8243;49.048;8.396;2022-08-21T15:18:24;7.60;;;2.63;;
16270;SDS011;8243;49.048;8.396;2022-08-21T15:20:51;3.43;;;2.73;;
16270;SDS011;8243;49.048;8.396;2022-08-21T15:23:17;4.33;;;2.73;;
16270;SDS011;8243;49.048;8.396;2022-08-21T15:25:43;4.00;;;2.37;;
16270;SDS011;8243;49.048;8.396;2022-08-21T15:28:11;4.30;;;2.50;;
16270;SDS011;8243;49.048;8.396;2022-08-21T15:30:38;3.67;;;2.30;;
16270;SDS011;8243;49.048;8.396;2022-08-21T15:33:05;4.13;;;2.60;;
16270;SDS011;8243;49.048;8.396;2022-08-21T15:35:31;3.10;;;2.53;;
16270;SDS011;8243;49.048;8.396;2022-08-21T15:37:57;3.23;;;2.47;;
16270;SDS011;8243;49.048;8.396;2022-08-21T15:40:23;3.03;;;2.63;;
16270;SDS011;8243;49.048;8.396;2022-08-21T15:42:50;4.30;;;2.57;;
16270;SDS011;8243;49.048;8.396;2022-08-21T15:45:20;3.40;;;2.40;;
16270;SDS011;8243;49.048;8.396;2022-08-21T15:47:46;4.10;;;2.03;;
16270;SDS011;8243;49.048;8.396;2022-08-21T15:50:14;3.40;;;2.50;;
16270;SDS011;8243;49.048;8.396;2022-08-21T15:52:40;4.97;;;2.17;;
16270;SDS011;8243;49.048;8.396;2022-08-21T15:55:06;3.67;;;2.73;;
16270;SDS011;8243;49.048;8.396;2022-08-21T15:57:32;4.40;;;2.57;;
16270;SDS011;8243;49.048;8.396;2022-08-21T16:00:03;3.70;;;2.37;;
16270;SDS011;8243;49.048;8.396;2022-08-21T16:02:36;5.03;;;2.40;;
16270;SDS011;8243;49.048;8.396;2022-08-21T16:05:03;4.87;;;2.70;;
16270;SDS011;8243;49.048;8.396;2022-08-21T16:07:29;3.67;;;2.30;;
16270;SDS011;8243;49.048;8.396;2022-08-21T16:09:54;4.37;;;2.57;;
16270;SDS011;8243;49.048;8.396;2022-08-21T16:12:21;4.93;;;2.50;;
16270;SDS011;8243;49.048;8.396;2022-08-21T16:14:50;4.17;;;2.47;;
16270;SDS011;8243;49.048;8.396;2022-08-21T16:17:17;3.77;;;2.53;;
16270;SDS011;8243;49.048;8.396;2022-08-21T16:19:43;4.27;;;2.50;;
16270;SDS011;8243;49.048;8.396;2022-08-21T16:22:09;3.93;;;2.83;;
16270;SDS011;8243;49.048;8.396;2022-08-21T16:24:34;3.50;;;2.70;;
16270;SDS011;8243;49.048;8.396;2022-08-21T16:27:00;10.90;;;3.23;;
16270;SDS011;8243;49.048;8.396;2022-08-21T16:29:27;12.10;;;2.60;;
16270;SDS011;8243;49.048;8.396;2022-08-21T16:31:58;5.00;;;2.80;;